createdAt,value
2018-11-02T00:01:34.244Z,48.58
2018-11-02T00:04:02.572Z,48.80
2018-11-02T00:06:32.820Z,44.03
2018-11-02T00:09:01.094Z,42.23
2018-11-02T00:11:29.346Z,49.93
2018-11-02T00:13:57.568Z,44.60
2018-11-02T00:16:25.784Z,48.87
2018-11-02T00:18:54.077Z,47.93
2018-11-02T00:21:22.888Z,48.60
2018-11-02T00:23:51.285Z,44.83
2018-11-02T00:26:20.089Z,50.48
2018-11-02T00:28:49.585Z,50.00
2018-11-02T00:31:18.454Z,45.85
2018-11-02T00:33:47.033Z,47.95
2018-11-02T00:36:18.501Z,48.95
2018-11-02T00:38:48.981Z,52.27
2018-11-02T00:41:17.996Z,53.80
2018-11-02T00:43:47.625Z,45.75
2018-11-02T00:46:15.929Z,46.28
2018-11-02T00:48:44.115Z,45.60
2018-11-02T00:51:15.168Z,48.68
2018-11-02T00:53:44.410Z,48.45
2018-11-02T00:56:12.693Z,47.75
2018-11-02T00:58:40.969Z,48.78
2018-11-02T01:01:09.116Z,50.85
2018-11-02T01:03:37.426Z,52.95
2018-11-02T01:06:05.784Z,63.23
2018-11-02T01:08:34.042Z,53.15
2018-11-02T01:11:02.268Z,56.37
2018-11-02T01:13:30.480Z,62.50
2018-11-02T01:15:58.678Z,64.03
2018-11-02T01:18:26.922Z,58.65
2018-11-02T01:20:55.161Z,59.42
2018-11-02T01:23:23.398Z,57.83
2018-11-02T01:25:51.606Z,58.42
2018-11-02T01:28:19.793Z,56.90
2018-11-02T01:30:48.068Z,65.12
2018-11-02T01:33:16.237Z,64.75
2018-11-02T01:35:44.418Z,72.42
2018-11-02T01:38:12.614Z,67.55
2018-11-02T01:40:40.779Z,61.75
2018-11-02T01:43:08.935Z,52.67
2018-11-02T01:45:37.159Z,50.88
2018-11-02T01:48:05.910Z,55.78
2018-11-02T01:50:34.684Z,49.00
2018-11-02T01:53:02.977Z,56.13
2018-11-02T01:55:31.216Z,51.63
2018-11-02T01:57:59.438Z,49.90
2018-11-02T02:00:27.792Z,54.08
2018-11-02T02:02:55.979Z,52.35
2018-11-02T02:05:24.244Z,55.55
2018-11-02T02:07:52.427Z,52.78
2018-11-02T02:10:20.593Z,49.18
2018-11-02T02:12:48.866Z,51.28
2018-11-02T02:15:17.095Z,49.38
2018-11-02T02:17:45.313Z,49.48
2018-11-02T02:20:13.545Z,46.48
2018-11-02T02:22:41.781Z,46.42
2018-11-02T02:25:10.072Z,53.78
2018-11-02T02:27:38.988Z,44.60
2018-11-02T02:30:09.297Z,48.60
2018-11-02T02:32:37.962Z,48.80
2018-11-02T02:35:06.286Z,48.10
2018-11-02T02:37:34.588Z,47.75
2018-11-02T02:40:02.783Z,42.27
2018-11-02T02:42:31.052Z,47.38
2018-11-02T02:44:59.317Z,47.33
2018-11-02T02:47:27.594Z,54.65
2018-11-02T02:49:55.968Z,47.48
2018-11-02T02:52:24.924Z,41.13
2018-11-02T02:54:53.244Z,36.42
2018-11-02T02:57:21.572Z,35.60
2018-11-02T02:59:52.172Z,34.95
2018-11-02T03:02:20.431Z,29.37
2018-11-02T03:04:48.661Z,28.98
2018-11-02T03:07:16.819Z,27.45
2018-11-02T03:09:45.425Z,25.15
2018-11-02T03:12:14.041Z,23.80
2018-11-02T03:14:42.311Z,22.40
2018-11-02T03:17:10.597Z,26.55
2018-11-02T03:19:38.899Z,18.60
2018-11-02T03:22:07.207Z,19.48
2018-11-02T03:24:35.406Z,18.90
2018-11-02T03:27:03.599Z,19.40
2018-11-02T03:29:32.086Z,20.10
2018-11-02T03:32:00.437Z,17.98
2018-11-02T03:34:28.634Z,16.80
2018-11-02T03:36:56.916Z,17.07
2018-11-02T03:39:25.189Z,19.73
2018-11-02T03:41:53.366Z,16.45
2018-11-02T03:44:22.428Z,16.93
2018-11-02T03:46:50.719Z,15.23
2018-11-02T03:49:18.873Z,16.42
2018-11-02T03:51:47.150Z,13.45
2018-11-02T03:54:15.375Z,15.15
2018-11-02T03:56:43.767Z,14.63
2018-11-02T03:59:12.384Z,15.65
2018-11-02T04:01:40.700Z,16.05
2018-11-02T04:04:09.188Z,14.33
2018-11-02T04:06:37.422Z,16.23
2018-11-02T04:09:06.749Z,14.15
2018-11-02T04:11:35.044Z,14.30
2018-11-02T04:14:03.355Z,14.63
2018-11-02T04:16:31.977Z,16.07
2018-11-02T04:19:00.258Z,15.60
2018-11-02T04:21:28.485Z,14.87
2018-11-02T04:23:56.691Z,14.95
2018-11-02T04:26:24.913Z,14.60
2018-11-02T04:28:53.192Z,15.78
2018-11-02T04:31:21.516Z,15.10
2018-11-02T04:33:49.723Z,17.85
2018-11-02T04:36:17.983Z,17.15
2018-11-02T04:38:46.148Z,16.60
2018-11-02T04:41:14.474Z,15.15
2018-11-02T04:43:42.710Z,15.78
2018-11-02T04:46:11.031Z,17.00
2018-11-02T04:48:39.236Z,16.57
2018-11-02T04:51:07.591Z,18.30
2018-11-02T04:53:35.657Z,15.38
2018-11-02T04:56:03.968Z,19.32
2018-11-02T04:58:32.175Z,19.25
2018-11-02T05:01:00.445Z,16.02
2018-11-02T05:03:28.699Z,15.93
2018-11-02T05:05:56.938Z,14.65
2018-11-02T05:08:25.160Z,13.80
2018-11-02T05:10:53.602Z,16.45
2018-11-02T05:13:21.930Z,14.47
2018-11-02T05:15:50.346Z,16.77
2018-11-02T05:18:18.579Z,16.37
2018-11-02T05:20:46.828Z,16.80
2018-11-02T05:23:15.053Z,16.12
2018-11-02T05:25:43.248Z,15.23
2018-11-02T05:28:11.472Z,16.15
2018-11-02T05:30:39.824Z,15.55
2018-11-02T05:33:08.186Z,14.73
2018-11-02T05:35:36.436Z,15.30
2018-11-02T05:38:04.749Z,18.10
2018-11-02T05:40:32.980Z,15.20
2018-11-02T05:43:01.293Z,15.05
2018-11-02T05:45:29.565Z,13.95
2018-11-02T05:47:57.755Z,14.87
2018-11-02T05:50:25.993Z,15.32
2018-11-02T05:52:54.190Z,13.98
2018-11-02T05:55:22.515Z,13.40
2018-11-02T05:57:50.741Z,15.65
2018-11-02T06:00:18.928Z,15.90
2018-11-02T06:02:47.276Z,16.00
2018-11-02T06:05:15.432Z,16.25
2018-11-02T06:07:43.689Z,15.72
2018-11-02T06:10:11.985Z,16.32
2018-11-02T06:12:40.236Z,14.38
2018-11-02T06:15:08.479Z,16.15
2018-11-02T06:17:37.181Z,22.32
2018-11-02T06:20:06.677Z,15.08
2018-11-02T06:22:35.141Z,16.75
2018-11-02T06:25:03.462Z,17.45
2018-11-02T06:27:31.741Z,19.75
2018-11-02T06:30:00.383Z,15.93
2018-11-02T06:32:28.658Z,16.00
2018-11-02T06:34:56.892Z,15.68
2018-11-02T06:37:26.160Z,17.85
2018-11-02T06:39:54.625Z,17.32
2018-11-02T06:42:22.839Z,15.83
2018-11-02T06:44:51.136Z,16.60
2018-11-02T06:47:19.458Z,17.27
2018-11-02T06:49:47.664Z,18.12
2018-11-02T06:52:15.952Z,16.10
2018-11-02T06:54:44.345Z,17.00
2018-11-02T06:57:12.551Z,17.23
2018-11-02T06:59:41.083Z,17.45
2018-11-02T07:02:09.156Z,18.15
2018-11-02T07:04:37.420Z,18.27
2018-11-02T07:07:06.110Z,17.60
2018-11-02T07:09:36.441Z,20.17
2018-11-02T07:12:06.115Z,18.95
2018-11-02T07:14:35.707Z,19.60
2018-11-02T07:17:09.765Z,17.70
2018-11-02T07:24:59.980Z,18.23
2018-11-02T07:27:31.068Z,16.45
2018-11-02T07:30:03.278Z,18.60
2018-11-02T07:32:33.462Z,15.00
2018-11-02T07:35:14.522Z,16.87
2018-11-02T07:37:52.275Z,15.78
2018-11-02T07:40:20.623Z,16.82
2018-11-02T07:42:48.854Z,15.53
2018-11-02T07:45:18.624Z,14.68
2018-11-02T07:47:46.988Z,14.20
2018-11-02T07:50:15.236Z,13.35
2018-11-02T07:52:47.170Z,14.50
2018-11-02T07:55:16.566Z,15.32
2018-11-02T07:57:45.574Z,15.63
2018-11-02T08:00:15.467Z,15.68
2018-11-02T08:05:31.385Z,14.55
2018-11-02T08:08:00.136Z,15.18
2018-11-02T08:10:32.845Z,14.38
2018-11-02T08:13:01.108Z,14.45
2018-11-02T08:15:30.621Z,18.90
2018-11-02T08:17:58.930Z,13.53
2018-11-02T08:20:28.700Z,13.85
2018-11-02T08:22:58.984Z,14.80
2018-11-02T08:25:27.460Z,15.35
2018-11-02T08:27:56.051Z,12.85
2018-11-02T08:30:24.421Z,13.22
2018-11-02T08:33:05.861Z,14.98
2018-11-02T08:35:34.415Z,15.63
2018-11-02T08:38:02.980Z,16.48
2018-11-02T08:40:41.838Z,14.95
2018-11-02T08:43:10.414Z,15.38
2018-11-02T08:45:38.701Z,18.55
2018-11-02T08:48:07.704Z,17.05
2018-11-02T08:50:35.991Z,16.37
2018-11-02T08:53:04.367Z,17.37
2018-11-02T08:55:32.627Z,16.55
2018-11-02T08:58:01.246Z,16.25
2018-11-02T09:00:30.533Z,14.63
2018-11-02T09:02:59.564Z,13.75
2018-11-02T09:05:32.255Z,13.75
2018-11-02T09:08:11.959Z,11.50
2018-11-02T09:10:44.672Z,11.15
2018-11-02T09:13:18.575Z,11.25
2018-11-02T09:15:47.588Z,10.70
2018-11-02T09:18:24.032Z,9.50
2018-11-02T09:20:53.551Z,9.50
2018-11-02T09:23:21.868Z,10.00
2018-11-02T09:26:22.965Z,7.92
2018-11-02T09:28:51.183Z,6.42
2018-11-02T09:31:19.449Z,7.50
2018-11-02T09:33:47.856Z,6.00
2018-11-02T09:36:16.326Z,6.87
2018-11-02T09:38:44.592Z,5.20
2018-11-02T09:41:12.987Z,6.60
2018-11-02T09:43:41.213Z,5.05
2018-11-02T09:46:09.474Z,4.78
2018-11-02T09:48:37.688Z,6.80
2018-11-02T09:51:08.004Z,4.58
2018-11-02T09:53:36.655Z,4.10
2018-11-02T09:56:05.206Z,4.53
2018-11-02T09:58:33.916Z,3.40
2018-11-02T10:01:02.417Z,4.25
2018-11-02T10:03:30.524Z,7.62
2018-11-02T10:05:58.973Z,2.20
2018-11-02T10:08:30.989Z,2.80
2018-11-02T10:10:59.817Z,4.00
2018-11-02T10:13:29.372Z,4.47
2018-11-02T10:15:58.766Z,3.00
2018-11-02T10:18:28.625Z,2.90
2018-11-02T10:20:57.015Z,2.37
2018-11-02T10:23:25.344Z,1.30
2018-11-02T10:25:53.915Z,1.85
2018-11-02T10:28:22.348Z,1.42
2018-11-02T10:30:50.656Z,1.35
2018-11-02T10:33:19.077Z,1.57
2018-11-02T10:35:47.903Z,1.87
2018-11-02T10:38:16.344Z,1.20
2018-11-02T10:40:47.761Z,1.40
2018-11-02T10:43:18.560Z,2.52
2018-11-02T10:45:54.968Z,2.25
2018-11-02T10:48:24.041Z,3.83
2018-11-02T10:50:52.459Z,0.95
2018-11-02T10:53:20.700Z,2.27
2018-11-02T10:55:49.160Z,2.62
2018-11-02T10:58:17.902Z,0.80
2018-11-02T11:00:51.868Z,3.70
2018-11-02T11:03:20.996Z,1.98
2018-11-02T11:05:49.968Z,7.55
2018-11-02T11:08:19.526Z,2.00
2018-11-02T11:10:48.050Z,2.50
2018-11-02T11:13:16.760Z,1.70
2018-11-02T11:15:44.728Z,1.40
2018-11-02T11:18:13.161Z,2.60
2018-11-02T11:20:41.333Z,6.30
2018-11-02T11:23:09.764Z,3.45
2018-11-02T11:25:38.427Z,2.22
2018-11-02T11:28:08.921Z,3.62
2018-11-02T11:30:37.263Z,3.20
2018-11-02T11:33:09.411Z,4.65
2018-11-02T11:35:39.849Z,1.07
2018-11-02T11:38:09.056Z,3.15
2018-11-02T11:40:37.468Z,3.12
2018-11-02T11:43:10.258Z,1.15
2018-11-02T11:45:40.112Z,3.75
2018-11-02T11:48:08.388Z,1.95
2018-11-02T11:50:37.800Z,2.27
2018-11-02T11:53:06.538Z,7.50
2018-11-02T11:55:38.963Z,1.95
2018-11-02T11:58:10.615Z,1.57
2018-11-02T12:00:38.801Z,6.30
2018-11-02T12:03:07.996Z,8.33
2018-11-02T12:05:36.978Z,3.83
2018-11-02T12:08:08.828Z,3.35
2018-11-02T12:10:37.123Z,7.20
2018-11-02T12:13:06.343Z,2.35
2018-11-02T12:15:34.764Z,4.15
2018-11-02T12:18:02.978Z,4.45
2018-11-02T12:20:31.249Z,4.78
2018-11-02T12:23:01.108Z,6.47
2018-11-02T12:25:29.396Z,4.50
2018-11-02T12:28:01.163Z,6.30
2018-11-02T12:30:29.388Z,3.22
2018-11-02T12:32:58.227Z,6.25
2018-11-02T12:35:28.584Z,3.70
2018-11-02T12:37:58.156Z,6.42
2018-11-02T12:40:26.988Z,2.85
2018-11-02T12:42:55.861Z,6.60
2018-11-02T12:45:24.717Z,2.47
2018-11-02T12:47:52.891Z,5.67
2018-11-02T12:50:23.602Z,5.15
2018-11-02T12:52:52.816Z,3.85
2018-11-02T12:55:21.666Z,5.67
2018-11-02T12:57:49.940Z,5.45
2018-11-02T13:00:19.613Z,5.97
2018-11-02T13:02:48.369Z,10.58
2018-11-02T13:05:17.551Z,5.25
2018-11-02T13:07:46.594Z,6.50
2018-11-02T13:10:15.984Z,3.17
2018-11-02T13:12:44.347Z,2.15
2018-11-02T13:15:13.815Z,3.05
2018-11-02T13:17:43.044Z,6.15
2018-11-02T13:20:11.797Z,6.58
2018-11-02T13:22:40.568Z,7.35
2018-11-02T13:25:10.447Z,6.28
2018-11-02T13:27:38.778Z,6.95
2018-11-02T13:30:07.933Z,7.00
2018-11-02T13:32:37.381Z,3.27
2018-11-02T13:35:07.053Z,4.22
2018-11-02T13:37:35.839Z,2.65
2018-11-02T13:40:08.437Z,3.65
2018-11-02T13:42:40.635Z,2.22
2018-11-02T13:45:10.896Z,7.58
2018-11-02T13:47:39.852Z,5.08
2018-11-02T13:50:08.794Z,5.25
2018-11-02T13:52:40.752Z,5.25
2018-11-02T13:55:09.619Z,5.58
2018-11-02T13:57:38.347Z,4.55
2018-11-02T14:00:08.197Z,2.10
2018-11-02T14:02:37.995Z,6.53
2018-11-02T14:05:07.883Z,6.72
2018-11-02T14:07:36.260Z,3.60
2018-11-02T14:10:09.504Z,4.55
2018-11-02T14:12:41.845Z,6.70
2018-11-02T14:15:11.581Z,4.87
2018-11-02T14:17:40.272Z,4.47
2018-11-02T14:20:11.517Z,9.30
2018-11-02T14:22:40.047Z,4.12
2018-11-02T14:25:10.773Z,2.75
2018-11-02T14:27:39.281Z,3.70
2018-11-02T14:30:11.172Z,4.42
2018-11-02T14:32:39.708Z,4.25
2018-11-02T14:35:09.946Z,4.72
2018-11-02T14:37:39.508Z,4.33
2018-11-02T14:40:11.846Z,5.17
2018-11-02T14:42:40.921Z,4.97
2018-11-02T14:45:10.612Z,5.83
2018-11-02T14:47:39.241Z,2.25
2018-11-02T14:50:09.050Z,10.00
2018-11-02T14:52:37.860Z,1.45
2018-11-02T14:55:06.434Z,3.52
2018-11-02T14:57:36.896Z,6.83
2018-11-02T15:00:06.892Z,4.30
2018-11-02T15:02:35.518Z,4.75
2018-11-02T15:05:03.795Z,4.45
2018-11-02T15:07:32.052Z,5.47
2018-11-02T15:10:00.303Z,5.53
2018-11-02T15:12:29.487Z,3.20
2018-11-02T15:14:57.761Z,2.58
2018-11-02T15:17:26.025Z,9.45
2018-11-02T15:19:54.204Z,4.50
2018-11-02T15:22:22.392Z,5.30
2018-11-02T15:24:50.582Z,4.15
2018-11-02T15:27:18.927Z,6.65
2018-11-02T15:29:47.981Z,3.35
2018-11-02T15:32:16.814Z,3.92
2018-11-02T15:34:45.870Z,18.48
2018-11-02T15:37:14.148Z,4.83
2018-11-02T15:39:42.340Z,2.92
2018-11-02T15:42:10.564Z,3.45
2018-11-02T15:44:38.892Z,1.70
2018-11-02T15:47:07.126Z,4.95
2018-11-02T15:49:35.380Z,6.42
2018-11-02T15:52:06.149Z,6.53
2018-11-02T15:54:34.443Z,3.00
2018-11-02T15:57:02.718Z,4.67
2018-11-02T15:59:31.037Z,2.33
2018-11-02T16:01:59.336Z,3.25
2018-11-02T16:04:27.545Z,1.87
2018-11-02T16:06:55.910Z,6.47
2018-11-02T16:09:24.017Z,3.70
2018-11-02T16:11:52.160Z,4.62
2018-11-02T16:14:20.879Z,3.72
2018-11-02T16:16:49.797Z,3.27
2018-11-02T16:19:18.274Z,2.65
2018-11-02T16:21:47.069Z,3.40
2018-11-02T16:24:15.513Z,3.80
2018-11-02T16:26:43.853Z,2.35
2018-11-02T16:29:12.116Z,5.08
2018-11-02T16:31:40.426Z,5.65
2018-11-02T16:34:08.590Z,4.47
2018-11-02T16:36:36.934Z,8.58
2018-11-02T16:39:09.677Z,2.98
2018-11-02T16:41:38.051Z,5.33
2018-11-02T16:44:08.923Z,4.72
2018-11-02T16:46:38.055Z,8.80
2018-11-02T16:49:08.073Z,4.72
2018-11-02T16:51:36.392Z,5.58
2018-11-02T16:54:05.296Z,5.75
2018-11-02T16:56:33.872Z,3.87
2018-11-02T16:59:02.479Z,3.83
2018-11-02T17:01:30.741Z,6.62
2018-11-02T17:03:59.541Z,7.10
2018-11-02T17:06:29.689Z,6.10
2018-11-02T17:09:01.387Z,4.45
2018-11-02T17:11:29.923Z,5.28
2018-11-02T17:13:59.172Z,4.28
2018-11-02T17:16:28.328Z,5.92
2018-11-02T17:18:59.509Z,5.45
2018-11-02T17:21:28.405Z,4.62
2018-11-02T17:23:56.634Z,5.70
2018-11-02T17:26:24.890Z,3.27
2018-11-02T17:28:53.285Z,2.17
2018-11-02T17:31:21.463Z,3.35
2018-11-02T17:33:49.710Z,1.95
2018-11-02T17:36:21.454Z,4.58
2018-11-02T17:38:49.720Z,5.35
2018-11-02T17:41:18.118Z,7.20
2018-11-02T17:43:47.711Z,2.75
2018-11-02T17:46:18.193Z,8.23
2018-11-02T17:48:46.907Z,5.95
2018-11-02T17:51:19.724Z,6.92
2018-11-02T17:53:51.865Z,7.37
2018-11-02T17:56:20.319Z,4.53
2018-11-02T17:58:50.554Z,4.12
2018-11-02T18:01:20.620Z,4.35
2018-11-02T18:03:51.088Z,7.45
2018-11-02T18:06:19.993Z,5.37
2018-11-02T18:08:52.113Z,4.10
2018-11-02T18:11:21.645Z,4.62
2018-11-02T18:13:51.034Z,3.95
2018-11-02T18:16:20.149Z,4.65
2018-11-02T18:18:48.457Z,3.87
2018-11-02T18:21:16.785Z,6.90
2018-11-02T18:23:45.350Z,4.78
2018-11-02T18:26:13.916Z,6.92
2018-11-02T18:28:42.365Z,7.40
2018-11-02T18:31:10.981Z,7.92
2018-11-02T18:33:39.265Z,5.45
2018-11-02T18:36:07.584Z,8.00
2018-11-02T18:38:36.247Z,13.05
2018-11-02T18:41:04.769Z,11.12
2018-11-02T18:43:33.434Z,6.50
2018-11-02T18:46:02.782Z,14.40
2018-11-02T18:48:31.205Z,12.70
2018-11-02T18:50:59.444Z,7.20
2018-11-02T18:53:28.233Z,7.42
2018-11-02T18:55:56.638Z,4.92
2018-11-02T18:58:25.355Z,6.83
2018-11-02T19:00:53.683Z,10.08
2018-11-02T19:03:22.024Z,8.48
2018-11-02T19:05:50.944Z,6.08
2018-11-02T19:08:19.674Z,11.15
2018-11-02T19:10:57.942Z,9.10
2018-11-02T19:13:26.624Z,7.85
2018-11-02T19:15:56.219Z,7.95
2018-11-02T19:18:25.499Z,7.55
2018-11-02T19:20:55.002Z,6.95
2018-11-02T19:23:23.679Z,7.33
2018-11-02T19:25:52.455Z,4.08
2018-11-02T19:28:21.845Z,8.30
2018-11-02T19:30:51.692Z,8.23
2018-11-02T19:33:20.569Z,9.33
2018-11-02T19:35:50.531Z,4.75
2018-11-02T19:38:19.830Z,5.03
2018-11-02T19:40:48.530Z,6.33
2018-11-02T19:43:17.903Z,10.03
2018-11-02T19:45:48.833Z,7.10
2018-11-02T19:48:17.963Z,6.10
2018-11-02T19:50:47.311Z,5.90
2018-11-02T19:53:16.721Z,4.12
2018-11-02T19:55:45.354Z,7.55
2018-11-02T19:58:14.533Z,6.78
2018-11-02T20:00:43.411Z,6.62
2018-11-02T20:03:11.870Z,3.85
2018-11-02T20:05:41.609Z,3.75
2018-11-02T20:08:10.180Z,3.62
2018-11-02T20:10:38.602Z,4.08
2018-11-02T20:13:07.580Z,8.63
2018-11-02T20:15:36.215Z,6.87
2018-11-02T20:18:05.217Z,4.70
2018-11-02T20:20:34.094Z,5.20
2018-11-02T20:23:02.709Z,4.05
2018-11-02T20:25:31.412Z,4.35
2018-11-02T20:27:59.693Z,4.25
2018-11-02T20:30:28.079Z,4.62
2018-11-02T20:32:56.272Z,6.10
2018-11-02T20:35:24.544Z,8.25
2018-11-02T20:37:54.035Z,9.75
2018-11-02T20:40:22.487Z,6.08
2018-11-02T20:42:50.880Z,2.42
2018-11-02T20:45:19.150Z,8.23
2018-11-02T20:47:50.512Z,4.12
2018-11-02T20:50:19.697Z,3.37
2018-11-02T20:52:48.326Z,2.45
2018-11-02T20:55:17.277Z,2.95
2018-11-02T20:57:45.868Z,6.00
2018-11-02T21:03:01.424Z,5.35
2018-11-02T21:05:30.091Z,10.53
2018-11-02T21:07:59.219Z,14.43
2018-11-02T21:10:28.025Z,4.00
2018-11-02T21:12:56.604Z,4.45
2018-11-02T21:15:26.049Z,3.95
2018-11-02T21:17:54.771Z,10.55
2018-11-02T21:20:25.406Z,5.12
2018-11-02T21:22:54.133Z,8.90
2018-11-02T21:25:23.489Z,5.03
2018-11-02T21:27:52.788Z,4.10
2018-11-02T21:30:23.464Z,5.20
2018-11-02T21:32:54.368Z,4.67
2018-11-02T21:35:23.482Z,8.08
2018-11-02T21:37:52.531Z,7.12
2018-11-02T21:40:28.250Z,9.38
2018-11-02T21:43:11.471Z,6.53
2018-11-02T21:45:41.190Z,7.67
2018-11-02T21:48:15.256Z,7.05
2018-11-02T21:50:44.794Z,6.80
2018-11-02T21:53:14.387Z,7.25
2018-11-02T21:55:43.689Z,5.80
2018-11-02T21:58:12.389Z,6.53
2018-11-02T22:00:43.125Z,6.03
2018-11-02T22:03:13.565Z,7.53
2018-11-02T22:05:44.331Z,9.75
2018-11-02T22:08:15.604Z,6.50
2018-11-02T22:10:45.063Z,10.10
2018-11-02T22:15:51.866Z,7.67
2018-11-02T22:18:22.578Z,6.50
2018-11-02T22:20:52.782Z,7.15
2018-11-02T22:23:22.125Z,7.35
2018-11-02T22:25:50.978Z,8.93
2018-11-02T22:28:20.403Z,6.65
2018-11-02T22:30:53.364Z,6.25
2018-11-02T22:33:22.267Z,10.25
2018-11-02T22:35:52.725Z,10.48
2018-11-02T22:38:22.258Z,11.00
2018-11-02T22:40:52.237Z,7.10
2018-11-02T22:43:21.454Z,11.65
2018-11-02T22:45:51.357Z,7.28
2018-11-02T22:48:25.369Z,11.35
2018-11-02T22:50:56.135Z,12.43
2018-11-02T22:53:24.885Z,10.25
2018-11-02T22:55:55.786Z,10.18
2018-11-02T22:58:25.929Z,8.85
2018-11-02T23:01:00.705Z,8.83
2018-11-02T23:03:29.630Z,7.72
2018-11-02T23:05:58.446Z,11.43
2018-11-02T23:08:28.392Z,10.48
2018-11-02T23:10:57.782Z,9.18
2018-11-02T23:13:28.414Z,13.95
2018-11-02T23:15:57.972Z,8.10
2018-11-02T23:18:27.812Z,9.40
2018-11-02T23:20:59.410Z,10.53
2018-11-02T23:23:28.159Z,10.40
2018-11-02T23:25:57.212Z,10.30
2018-11-02T23:28:25.849Z,8.80
2018-11-02T23:30:54.883Z,8.88
2018-11-02T23:33:23.476Z,9.80
2018-11-02T23:35:52.195Z,9.33
2018-11-02T23:38:21.050Z,10.55
2018-11-02T23:40:49.941Z,17.90
2018-11-02T23:43:18.212Z,10.18
2018-11-02T23:45:46.504Z,9.80
2018-11-02T23:48:16.920Z,11.73
2018-11-02T23:50:45.604Z,13.80
2018-11-02T23:53:14.019Z,13.75
2018-11-02T23:55:42.255Z,10.60
2018-11-02T23:58:10.623Z,9.43
